createdAt,value
2023-02-19T00:01:53.510Z,20.79
2023-02-19T00:05:54.812Z,20.84
2023-02-19T00:09:56.188Z,20.65
2023-02-19T00:14:00.057Z,20.99
2023-02-19T00:18:01.357Z,20.80
2023-02-19T00:22:02.763Z,21.00
2023-02-19T00:26:17.745Z,21.06
2023-02-19T00:30:20.207Z,20.62
2023-02-19T00:34:21.529Z,21.05
2023-02-19T00:38:22.938Z,20.85
2023-02-19T00:42:25.733Z,20.93
2023-02-19T00:46:38.719Z,20.91
2023-02-19T00:50:40.057Z,20.81
2023-02-19T00:54:41.453Z,21.09
2023-02-19T00:58:43.075Z,20.43
2023-02-19T01:02:44.423Z,21.20
2023-02-19T01:06:45.781Z,21.01
2023-02-19T01:10:47.754Z,21.09
2023-02-19T01:14:49.085Z,20.73
2023-02-19T01:18:50.819Z,20.67
2023-02-19T01:22:52.468Z,21.06
2023-02-19T01:26:54.338Z,21.08
2023-02-19T01:30:55.657Z,21.28
2023-02-19T01:34:57.041Z,20.92
2023-02-19T01:39:00.653Z,21.07
2023-02-19T01:43:03.594Z,20.89
2023-02-19T01:47:04.953Z,21.54
2023-02-19T01:51:11.262Z,21.38
2023-02-19T01:55:14.139Z,21.29
2023-02-19T01:59:18.236Z,21.21
2023-02-19T02:03:20.685Z,20.77
2023-02-19T02:07:52.445Z,21.33
2023-02-19T02:11:53.860Z,20.81
2023-02-19T02:16:20.429Z,20.86
2023-02-19T02:20:46.537Z,20.80
2023-02-19T02:25:09.530Z,21.24
2023-02-19T02:29:29.266Z,20.72
2023-02-19T02:33:30.588Z,21.09
2023-02-19T02:37:35.606Z,20.87
2023-02-19T02:41:43.855Z,21.09
2023-02-19T02:45:45.268Z,20.20
2023-02-19T02:50:05.085Z,21.08
2023-02-19T02:54:44.531Z,20.98
2023-02-19T02:58:48.418Z,21.08
2023-02-19T03:02:49.966Z,20.58
2023-02-19T03:06:52.463Z,20.87
2023-02-19T03:11:28.329Z,20.97
2023-02-19T03:15:54.298Z,20.64
2023-02-19T03:19:58.556Z,20.64
2023-02-19T03:24:19.063Z,20.72
2023-02-19T03:28:43.797Z,20.52
2023-02-19T03:32:48.536Z,20.34
2023-02-19T03:37:00.433Z,20.69
2023-02-19T03:41:40.397Z,20.79
2023-02-19T03:45:49.129Z,20.72
2023-02-19T03:49:59.857Z,20.28
2023-02-19T03:54:24.077Z,20.90
2023-02-19T03:58:35.276Z,20.83
2023-02-19T04:02:43.637Z,20.73
2023-02-19T04:06:52.491Z,20.27
2023-02-19T04:10:55.178Z,20.63
2023-02-19T04:15:06.432Z,20.64
2023-02-19T04:19:19.712Z,20.85
2023-02-19T04:23:24.889Z,20.50
2023-02-19T04:27:26.562Z,20.30
2023-02-19T04:31:31.292Z,20.63
2023-02-19T04:35:32.743Z,20.34
2023-02-19T04:39:34.175Z,20.26
2023-02-19T04:43:35.462Z,20.35
2023-02-19T04:47:36.761Z,20.52
2023-02-19T04:51:39.332Z,20.19
2023-02-19T04:55:40.693Z,20.51
2023-02-19T04:59:42.091Z,20.27
2023-02-19T05:03:43.969Z,20.25
2023-02-19T05:07:45.301Z,20.31
2023-02-19T05:11:46.648Z,20.06
2023-02-19T05:16:15.953Z,19.98
2023-02-19T05:20:17.378Z,20.26
2023-02-19T05:24:19.040Z,20.06
2023-02-19T05:28:21.830Z,20.15
2023-02-19T05:32:23.176Z,20.17
2023-02-19T05:36:24.549Z,20.47
2023-02-19T05:40:25.879Z,20.33
2023-02-19T05:44:27.362Z,20.31
2023-02-19T05:48:28.662Z,19.87
2023-02-19T05:52:29.950Z,19.64
2023-02-19T05:56:41.974Z,19.89
2023-02-19T06:00:43.297Z,19.06
2023-02-19T06:04:44.600Z,19.33
2023-02-19T06:08:47.667Z,20.07
2023-02-19T06:12:53.329Z,19.94
2023-02-19T06:16:54.659Z,19.94
2023-02-19T06:21:07.860Z,19.85
2023-02-19T06:25:12.443Z,19.84
2023-02-19T06:29:13.759Z,19.72
2023-02-19T06:33:15.093Z,19.53
2023-02-19T06:37:16.662Z,19.75
2023-02-19T06:41:18.854Z,19.87
2023-02-19T06:45:20.451Z,19.23
2023-02-19T06:49:22.110Z,19.99
2023-02-19T06:53:23.582Z,19.75
2023-02-19T06:57:24.930Z,20.18
2023-02-19T07:01:27.145Z,19.79
2023-02-19T07:05:28.436Z,19.97
2023-02-19T07:09:29.813Z,19.60
2023-02-19T07:13:31.304Z,19.52
2023-02-19T07:17:34.382Z,18.85
2023-02-19T07:21:37.965Z,19.48
2023-02-19T07:25:39.605Z,19.36
2023-02-19T07:29:40.950Z,19.71
2023-02-19T07:33:46.276Z,19.85
2023-02-19T07:37:47.655Z,19.47
2023-02-19T07:41:48.911Z,19.58
2023-02-19T07:45:50.636Z,19.93
2023-02-19T07:49:51.980Z,19.90
2023-02-19T07:53:53.458Z,19.55
2023-02-19T07:57:54.896Z,19.60
2023-02-19T08:02:14.986Z,20.15
2023-02-19T08:06:16.356Z,20.46
2023-02-19T08:10:36.413Z,20.53
2023-02-19T08:14:37.734Z,20.18
2023-02-19T08:18:39.334Z,20.11
2023-02-19T08:22:40.782Z,20.25
2023-02-19T08:26:42.142Z,20.28
2023-02-19T08:30:45.699Z,20.26
2023-02-19T08:34:47.031Z,20.47
2023-02-19T08:38:48.394Z,20.06
2023-02-19T08:42:49.967Z,20.39
2023-02-19T08:46:51.236Z,20.32
2023-02-19T08:50:57.368Z,20.26
2023-02-19T08:54:59.388Z,20.36
2023-02-19T08:59:01.004Z,20.45
2023-02-19T09:03:02.389Z,20.53
2023-02-19T09:07:07.578Z,20.63
2023-02-19T09:11:09.180Z,21.18
2023-02-19T09:15:10.779Z,21.20
2023-02-19T09:19:12.081Z,20.48
2023-02-19T09:23:13.414Z,21.09
2023-02-19T09:27:16.969Z,21.35
2023-02-19T09:31:18.381Z,21.16
2023-02-19T09:35:19.718Z,20.84
2023-02-19T09:39:21.605Z,20.74
2023-02-19T09:43:26.365Z,20.97
2023-02-19T09:47:31.327Z,20.54
2023-02-19T09:51:36.527Z,20.58
2023-02-19T09:55:43.414Z,20.52
2023-02-19T09:59:57.540Z,20.82
2023-02-19T10:03:58.868Z,20.94
2023-02-19T10:08:04.536Z,20.07
2023-02-19T10:12:15.994Z,20.71
2023-02-19T10:16:26.788Z,21.05
2023-02-19T10:20:28.218Z,20.86
2023-02-19T10:24:30.722Z,21.26
2023-02-19T10:28:35.911Z,21.32
2023-02-19T10:32:37.647Z,21.48
2023-02-19T10:36:41.914Z,21.19
2023-02-19T10:40:46.896Z,20.88
2023-02-19T10:44:58.721Z,21.12
2023-02-19T10:49:30.187Z,20.76
2023-02-19T10:53:47.524Z,20.95
2023-02-19T10:57:50.353Z,21.38
2023-02-19T11:01:59.406Z,20.71
2023-02-19T11:06:06.741Z,20.91
2023-02-19T11:10:21.400Z,21.00
2023-02-19T11:14:24.729Z,21.30
2023-02-19T11:18:31.791Z,21.29
2023-02-19T11:22:39.937Z,21.44
2023-02-19T11:26:41.384Z,21.70
2023-02-19T11:30:45.058Z,22.07
2023-02-19T11:34:47.751Z,21.88
2023-02-19T11:38:50.240Z,22.31
2023-02-19T11:43:12.764Z,21.73
2023-02-19T11:47:44.824Z,21.37
2023-02-19T11:51:55.220Z,21.31
2023-02-19T11:56:18.263Z,21.42
2023-02-19T12:00:44.490Z,21.61
2023-02-19T12:05:01.000Z,21.93
2023-02-19T12:09:14.673Z,21.51
2023-02-19T12:13:46.476Z,22.28
2023-02-19T12:17:55.619Z,22.67
2023-02-19T12:22:16.051Z,22.41
2023-02-19T12:26:54.992Z,22.66
2023-02-19T12:31:14.258Z,22.76
2023-02-19T12:35:32.697Z,23.59
2023-02-19T12:39:45.672Z,24.05
2023-02-19T12:43:54.421Z,24.05
2023-02-19T12:48:08.059Z,23.91
2023-02-19T12:52:21.926Z,23.25
2023-02-19T12:56:30.828Z,23.07
2023-02-19T13:00:44.289Z,23.11
2023-02-19T13:04:58.041Z,22.34
2023-02-19T13:09:11.801Z,22.45
2023-02-19T13:13:21.782Z,22.17
2023-02-19T13:17:31.880Z,21.52
2023-02-19T13:21:56.434Z,21.41
2023-02-19T13:26:23.550Z,21.80
2023-02-19T13:30:37.483Z,21.61
2023-02-19T13:34:59.635Z,21.20
2023-02-19T13:39:05.641Z,21.36
2023-02-19T13:43:34.841Z,20.70
2023-02-19T13:47:59.144Z,20.96
2023-02-19T13:52:29.757Z,21.65
2023-02-19T13:56:34.182Z,21.48
2023-02-19T14:00:51.773Z,21.45
2023-02-19T14:05:02.336Z,21.20
2023-02-19T14:09:03.837Z,21.65
2023-02-19T14:13:08.399Z,21.38
2023-02-19T14:17:09.644Z,21.55
2023-02-19T14:21:17.436Z,21.63
2023-02-19T14:25:31.055Z,21.64
2023-02-19T14:29:35.296Z,21.67
2023-02-19T14:33:40.172Z,21.77
2023-02-19T14:37:44.958Z,21.58
2023-02-19T14:41:51.264Z,20.96
2023-02-19T14:46:07.999Z,21.48
2023-02-19T14:50:17.478Z,21.46
2023-02-19T14:54:35.014Z,21.28
2023-02-19T14:58:36.927Z,20.90
2023-02-19T15:02:42.999Z,20.23
2023-02-19T15:06:44.450Z,20.68
2023-02-19T15:10:46.833Z,20.59
2023-02-19T15:14:50.751Z,20.74
2023-02-19T15:18:54.273Z,21.01
2023-02-19T15:22:58.424Z,20.41
2023-02-19T15:26:59.873Z,20.80
2023-02-19T15:31:02.066Z,20.89
2023-02-19T15:35:04.644Z,21.12
2023-02-19T15:39:06.081Z,20.96
2023-02-19T15:43:26.323Z,20.62
2023-02-19T15:47:43.787Z,21.13
2023-02-19T15:52:00.048Z,20.50
2023-02-19T15:56:09.672Z,21.08
2023-02-19T16:00:23.719Z,20.88
2023-02-19T16:04:25.132Z,21.12
2023-02-19T16:08:35.392Z,20.63
2023-02-19T16:12:36.755Z,20.96
2023-02-19T16:16:41.059Z,20.44
2023-02-19T16:20:47.578Z,20.74
2023-02-19T16:24:52.710Z,20.40
2023-02-19T16:28:55.205Z,20.85
2023-02-19T16:33:21.557Z,20.47
2023-02-19T16:37:41.177Z,20.49
2023-02-19T16:41:46.522Z,19.95
2023-02-19T16:45:47.910Z,20.08
2023-02-19T16:49:49.283Z,20.14
2023-02-19T16:53:50.727Z,19.87
2023-02-19T16:57:52.423Z,20.29
2023-02-19T17:01:53.790Z,20.01
2023-02-19T17:05:56.313Z,20.38
2023-02-19T17:09:57.812Z,20.18
2023-02-19T17:13:59.257Z,20.49
2023-02-19T17:18:00.641Z,20.35
2023-02-19T17:22:02.051Z,20.11
2023-02-19T17:26:03.479Z,20.18
2023-02-19T17:30:15.487Z,19.91
2023-02-19T17:34:16.969Z,19.98
2023-02-19T17:38:18.368Z,20.32
2023-02-19T17:42:19.995Z,19.45
2023-02-19T17:46:23.574Z,20.39
2023-02-19T17:50:28.680Z,19.44
2023-02-19T17:54:30.167Z,19.10
2023-02-19T17:58:31.552Z,19.88
2023-02-19T18:02:32.930Z,19.94
2023-02-19T18:06:35.900Z,20.03
2023-02-19T18:10:37.394Z,19.91
2023-02-19T18:14:38.731Z,19.61
2023-02-19T18:18:40.329Z,19.57
2023-02-19T18:22:42.444Z,19.53
2023-02-19T18:26:44.580Z,19.70
2023-02-19T18:30:45.965Z,19.76
2023-02-19T18:34:52.547Z,19.58
2023-02-19T18:38:54.021Z,19.30
2023-02-19T18:42:55.657Z,19.23
2023-02-19T18:46:57.092Z,19.33
2023-02-19T18:50:58.502Z,19.32
2023-02-19T18:55:00.518Z,19.38
2023-02-19T18:59:04.275Z,19.28
2023-02-19T19:03:06.419Z,19.16
2023-02-19T19:07:09.266Z,19.27
2023-02-19T19:11:11.067Z,19.35
2023-02-19T19:15:12.732Z,19.20
2023-02-19T19:19:14.737Z,19.40
2023-02-19T19:23:16.130Z,19.35
2023-02-19T19:27:20.716Z,19.16
2023-02-19T19:31:22.982Z,19.07
2023-02-19T19:35:24.339Z,19.12
2023-02-19T19:39:25.714Z,18.99
2023-02-19T19:43:31.350Z,19.27
2023-02-19T19:47:32.772Z,19.05
2023-02-19T19:51:35.135Z,19.02
2023-02-19T19:55:36.733Z,18.94
2023-02-19T19:59:39.226Z,19.05
2023-02-19T20:03:40.616Z,18.93
2023-02-19T20:07:42.253Z,19.07
2023-02-19T20:11:48.878Z,19.11
2023-02-19T20:15:51.333Z,19.08
2023-02-19T20:19:53.454Z,18.84
2023-02-19T20:23:54.798Z,19.05
2023-02-19T20:27:56.250Z,18.84
2023-02-19T20:32:02.457Z,18.83
2023-02-19T20:36:04.237Z,18.70
2023-02-19T20:40:06.998Z,18.73
2023-02-19T20:44:08.296Z,18.51
2023-02-19T20:48:09.634Z,18.41
2023-02-19T20:52:10.928Z,18.35
2023-02-19T20:56:12.829Z,18.28
2023-02-19T21:00:15.596Z,18.10
2023-02-19T21:04:18.311Z,18.22
2023-02-19T21:08:19.614Z,17.97
2023-02-19T21:12:22.433Z,17.83
2023-02-19T21:16:23.736Z,17.83
2023-02-19T21:20:25.099Z,17.61
2023-02-19T21:24:26.432Z,17.81
2023-02-19T21:28:27.800Z,17.80
2023-02-19T21:32:29.181Z,17.74
2023-02-19T21:36:30.876Z,17.64
2023-02-19T21:40:32.874Z,17.82
2023-02-19T21:44:34.268Z,17.83
2023-02-19T21:48:35.568Z,17.50
2023-02-19T21:52:38.463Z,17.58
2023-02-19T21:56:39.845Z,17.53
2023-02-19T22:00:41.216Z,17.48
2023-02-19T22:04:42.479Z,17.52
2023-02-19T22:08:44.569Z,17.50
2023-02-19T22:12:47.095Z,17.43
2023-02-19T22:16:51.788Z,17.49
2023-02-19T22:20:53.206Z,17.30
2023-02-19T22:24:56.745Z,17.31
2023-02-19T22:28:59.442Z,17.26
2023-02-19T22:33:00.869Z,17.20
2023-02-19T22:37:02.189Z,17.08
2023-02-19T22:41:03.553Z,17.35
2023-02-19T22:45:06.081Z,17.28
2023-02-19T22:49:07.576Z,17.21
2023-02-19T22:53:08.891Z,17.24
2023-02-19T22:57:10.209Z,17.29
2023-02-19T23:01:14.057Z,17.33
2023-02-19T23:05:16.182Z,17.46
2023-02-19T23:09:19.318Z,17.38
2023-02-19T23:13:20.713Z,17.35
2023-02-19T23:17:21.988Z,17.54
2023-02-19T23:21:23.424Z,17.37
2023-02-19T23:25:24.787Z,17.41
2023-02-19T23:29:27.873Z,17.43
2023-02-19T23:33:29.284Z,17.30
2023-02-19T23:37:30.655Z,17.44
2023-02-19T23:41:32.022Z,17.42
2023-02-19T23:45:33.440Z,17.35
2023-02-19T23:49:34.828Z,17.36
2023-02-19T23:53:36.141Z,17.36
2023-02-19T23:57:37.492Z,17.29
